Time;durP1;ratioP1;P1;durP2;ratioP2;P2;SDS_P1;SDS_P2;PMS_P1;PMS_P2;Temp;Humidity;BMP_temperature;BMP_pressure;BME280_temperature;BME280_humidity;BME280_pressure;Samples;Min_cycle;Max_cycle;Signal;HPM_P1;HPM_P2
2023/07/26 00:01:25;;;;;;;;;;;24.00;99.90;;;;;;5075872;28;20046;-63
2023/07/26 00:03:54;;;;;;;;;;;24.00;99.90;;;;;;5076074;28;20428;-63
2023/07/26 00:06:20;;;;;;;;;;;24.00;99.90;;;;;;5075438;28;20489;-63
2023/07/26 00:08:46;;;;;;;;;;;23.90;99.90;;;;;;5075774;28;20076;-65
2023/07/26 00:11:11;;;;;;;;;;;23.70;99.90;;;;;;5075631;28;20072;-64
2023/07/26 00:13:37;;;;;;;;;;;23.80;99.90;;;;;;5075813;28;20020;-63
2023/07/26 00:16:02;;;;;;;;;;;23.80;99.90;;;;;;5075511;28;20102;-64
2023/07/26 00:18:28;;;;;;;;;;;23.90;99.90;;;;;;5075496;28;19986;-63
2023/07/26 00:20:53;;;;;;;;;;;23.90;99.90;;;;;;5075168;28;19982;-63
2023/07/26 00:23:19;;;;;;;;;;;24.00;99.90;;;;;;5075419;28;19985;-63
2023/07/26 00:25:44;;;;;;;;;;;24.00;99.90;;;;;;5074824;28;20444;-63
2023/07/26 00:28:10;;;;;;;;;;;24.00;99.90;;;;;;5075479;28;19985;-64
2023/07/26 00:30:36;;;;;;;;;;;23.90;99.90;;;;;;5075162;28;20028;-64
2023/07/26 00:33:01;;;;;;;;;;;23.90;99.90;;;;;;5075093;28;20092;-63
2023/07/26 00:35:31;;;;;;;;;;;24.00;99.90;;;;;;5074941;28;19993;-64
2023/07/26 00:37:57;;;;;;;;;;;23.90;99.90;;;;;;5075306;28;19985;-63
2023/07/26 00:40:23;;;;;;;;;;;23.90;99.90;;;;;;5075124;28;20495;-64
2023/07/26 00:42:48;;;;;;;;;;;24.00;99.90;;;;;;5075079;28;19986;-65
2023/07/26 00:45:14;;;;;;;;;;;24.00;99.90;;;;;;5074676;28;20464;-65
2023/07/26 00:47:39;;;;;;;;;;;24.00;99.90;;;;;;5074990;28;20115;-63
2023/07/26 00:50:05;;;;;;;;;;;24.10;99.90;;;;;;5074719;28;19982;-64
2023/07/26 00:52:31;;;;;;;;;;;24.20;99.90;;;;;;5074572;28;20122;-64
2023/07/26 00:55:00;;;;;;;;;;;24.30;99.90;;;;;;5074828;28;20072;-65
2023/07/26 00:57:25;;;;;;;;;;;24.40;99.90;;;;;;5074722;28;20456;-64
2023/07/26 00:59:51;;;;;;;;;;;24.40;99.90;;;;;;5074555;28;20029;-64
2023/07/26 01:02:16;;;;;;;;;;;24.40;99.90;;;;;;5074841;28;19992;-64
2023/07/26 01:04:42;;;;;;;;;;;24.30;99.90;;;;;;5074335;28;19993;-63
2023/07/26 01:07:08;;;;;;;;;;;24.40;99.90;;;;;;5074512;28;20025;-65
2023/07/26 01:09:51;;;;;;;;;;;24.40;99.90;;;;;;5074703;28;20431;-64
2023/07/26 01:12:21;;;;;;;;;;;24.40;99.90;;;;;;5074276;28;19986;-63
2023/07/26 01:15:06;;;;;;;;;;;24.30;99.90;;;;;;5074322;28;20347;-64
2023/07/26 01:17:32;;;;;;;;;;;24.20;99.90;;;;;;5074629;28;19986;-64
2023/07/26 01:19:57;;;;;;;;;;;24.30;99.90;;;;;;5074001;28;20084;-64
2023/07/26 01:22:23;;;;;;;;;;;24.30;99.90;;;;;;5074240;28;20351;-64
2023/07/26 01:24:48;;;;;;;;;;;24.40;99.90;;;;;;5074281;28;20008;-64
2023/07/26 01:27:14;;;;;;;;;;;24.30;99.90;;;;;;5074151;28;19986;-64
2023/07/26 01:29:39;;;;;;;;;;;24.30;99.90;;;;;;5074302;28;19981;-65
2023/07/26 01:32:06;;;;;;;;;;;24.40;99.90;;;;;;5074036;28;19981;-65
2023/07/26 01:34:31;;;;;;;;;;;24.50;99.90;;;;;;5074126;28;20021;-64
2023/07/26 01:36:58;;;;;;;;;;;24.50;99.90;;;;;;5073262;28;20017;-64
2023/07/26 01:39:24;;;;;;;;;;;24.50;99.90;;;;;;5074191;28;19982;-65
2023/07/26 01:41:50;;;;;;;;;;;24.60;99.90;;;;;;5074004;28;20043;-64
2023/07/26 01:44:16;;;;;;;;;;;24.60;99.90;;;;;;5074401;28;19986;-64
2023/07/26 01:46:41;;;;;;;;;;;24.50;99.90;;;;;;5073768;28;20559;-65
2023/07/26 01:49:07;;;;;;;;;;;24.40;99.90;;;;;;5073652;28;19989;-64
2023/07/26 01:51:32;;;;;;;;;;;24.40;99.90;;;;;;5073797;28;19981;-64
2023/07/26 01:53:58;;;;;;;;;;;24.30;99.90;;;;;;5073783;28;20444;-64
2023/07/26 01:56:23;;;;;;;;;;;24.20;99.90;;;;;;5073796;28;20046;-64
2023/07/26 01:58:49;;;;;;;;;;;24.10;99.90;;;;;;5073795;28;20511;-63
2023/07/26 02:01:15;;;;;;;;;;;24.10;99.90;;;;;;5073981;28;20082;-64
2023/07/26 02:03:40;;;;;;;;;;;24.10;99.90;;;;;;5073436;28;20337;-65
2023/07/26 02:06:06;;;;;;;;;;;24.00;99.90;;;;;;5073929;28;20025;-63
2023/07/26 02:08:31;;;;;;;;;;;24.00;99.90;;;;;;5073840;28;20465;-64
2023/07/26 02:10:57;;;;;;;;;;;24.00;99.90;;;;;;5073747;28;20454;-65
2023/07/26 02:13:22;;;;;;;;;;;24.10;99.90;;;;;;5073505;28;20007;-64
2023/07/26 02:15:48;;;;;;;;;;;24.10;99.90;;;;;;5073581;28;19985;-63
2023/07/26 02:18:15;;;;;;;;;;;24.20;99.90;;;;;;5073371;28;19989;-64
2023/07/26 02:20:40;;;;;;;;;;;24.10;99.90;;;;;;5073609;28;19981;-64
2023/07/26 02:23:06;;;;;;;;;;;24.00;99.90;;;;;;5073427;28;20039;-64
2023/07/26 02:25:31;;;;;;;;;;;24.00;99.90;;;;;;5073390;28;19993;-63
2023/07/26 02:27:57;;;;;;;;;;;24.00;99.90;;;;;;5073589;28;20013;-64
2023/07/26 02:30:23;;;;;;;;;;;23.90;99.90;;;;;;5073323;28;19981;-64
2023/07/26 02:32:48;;;;;;;;;;;23.90;99.90;;;;;;5073467;28;20014;-64
2023/07/26 02:35:14;;;;;;;;;;;23.80;99.90;;;;;;5073640;28;20039;-64
2023/07/26 02:37:40;;;;;;;;;;;23.80;99.90;;;;;;5073626;28;20347;-65
2023/07/26 02:40:05;;;;;;;;;;;23.70;99.90;;;;;;5073258;28;20360;-64
2023/07/26 02:42:31;;;;;;;;;;;23.70;99.90;;;;;;5073432;28;19982;-64
2023/07/26 02:44:56;;;;;;;;;;;23.80;99.90;;;;;;5072987;28;20020;-64
2023/07/26 02:47:22;;;;;;;;;;;23.80;99.90;;;;;;5073380;28;19988;-63
2023/07/26 02:49:47;;;;;;;;;;;23.80;99.90;;;;;;5077315;28;19985;-63
2023/07/26 02:52:13;;;;;;;;;;;23.70;99.90;;;;;;5077067;28;19981;-64
2023/07/26 02:54:39;;;;;;;;;;;23.70;99.90;;;;;;5077346;28;19989;-63
2023/07/26 02:57:05;;;;;;;;;;;23.70;99.90;;;;;;5076928;28;20008;-63
2023/07/26 02:59:30;;;;;;;;;;;23.50;99.90;;;;;;5076887;28;19996;-64
2023/07/26 03:01:56;;;;;;;;;;;23.30;99.90;;;;;;5076694;28;19985;-63
2023/07/26 03:04:21;;;;;;;;;;;23.30;99.90;;;;;;5076924;28;20440;-64
2023/07/26 03:06:47;;;;;;;;;;;23.30;99.90;;;;;;5076954;28;20432;-64
2023/07/26 03:09:12;;;;;;;;;;;23.30;99.90;;;;;;5076820;28;19982;-65
2023/07/26 03:11:38;;;;;;;;;;;23.30;99.90;;;;;;5076740;28;19989;-64
2023/07/26 03:14:03;;;;;;;;;;;23.40;99.90;;;;;;5076725;28;20005;-64
2023/07/26 03:16:29;;;;;;;;;;;23.40;99.90;;;;;;5076548;28;20015;-65
2023/07/26 03:18:55;;;;;;;;;;;23.30;99.90;;;;;;5076568;28;20393;-64
2023/07/26 03:21:20;;;;;;;;;;;23.30;99.90;;;;;;5076576;28;19981;-63
2023/07/26 03:23:46;;;;;;;;;;;23.30;99.90;;;;;;5076648;28;19981;-64
2023/07/26 03:26:12;;;;;;;;;;;23.30;99.90;;;;;;5076436;28;19988;-63
2023/07/26 03:28:38;;;;;;;;;;;23.30;99.90;;;;;;5076244;28;19982;-65
2023/07/26 03:31:04;;;;;;;;;;;23.40;99.90;;;;;;5076516;28;19997;-65
2023/07/26 03:33:29;;;;;;;;;;;23.40;99.90;;;;;;5076217;28;20005;-63
2023/07/26 03:35:55;;;;;;;;;;;23.40;99.90;;;;;;5076326;28;19993;-64
2023/07/26 03:38:20;;;;;;;;;;;23.40;99.90;;;;;;5076468;28;20030;-64
2023/07/26 03:40:46;;;;;;;;;;;23.30;99.90;;;;;;5076278;28;20035;-64
2023/07/26 03:43:11;;;;;;;;;;;23.20;99.90;;;;;;5076093;28;19981;-64
2023/07/26 03:45:37;;;;;;;;;;;22.90;99.90;;;;;;5075834;28;20138;-64
2023/07/26 03:48:02;;;;;;;;;;;22.90;99.90;;;;;;5076133;28;19981;-63
2023/07/26 03:50:28;;;;;;;;;;;23.10;99.90;;;;;;5076014;28;20389;-65
2023/07/26 03:52:54;;;;;;;;;;;23.10;99.90;;;;;;5074738;28;20010;-63
2023/07/26 03:55:19;;;;;;;;;;;23.20;99.90;;;;;;5076043;28;20068;-65
2023/07/26 03:57:45;;;;;;;;;;;23.20;99.90;;;;;;5075797;28;20468;-64
2023/07/26 04:00:11;;;;;;;;;;;23.10;99.90;;;;;;5075085;28;20356;-64
2023/07/26 04:02:36;;;;;;;;;;;23.10;99.90;;;;;;5075819;28;20363;-64
2023/07/26 04:05:02;;;;;;;;;;;23.10;99.90;;;;;;5075699;28;19989;-64
2023/07/26 04:07:27;;;;;;;;;;;23.10;99.90;;;;;;5075885;28;19985;-63
2023/07/26 04:09:53;;;;;;;;;;;23.10;99.90;;;;;;5075715;28;19988;-64
2023/07/26 04:12:19;;;;;;;;;;;23.20;99.90;;;;;;5075654;28;20020;-63
2023/07/26 04:14:44;;;;;;;;;;;23.20;99.90;;;;;;5075339;28;19982;-64
2023/07/26 04:17:10;;;;;;;;;;;23.20;99.90;;;;;;5075566;28;20047;-64
2023/07/26 04:19:35;;;;;;;;;;;23.20;99.90;;;;;;5075500;28;19988;-64
2023/07/26 04:22:01;;;;;;;;;;;23.20;99.90;;;;;;5075334;28;19982;-64
2023/07/26 04:24:26;;;;;;;;;;;23.10;99.90;;;;;;5075535;28;20503;-63
2023/07/26 04:26:55;;;;;;;;;;;23.10;99.90;;;;;;5075300;28;19982;-63
2023/07/26 04:29:20;;;;;;;;;;;23.10;99.90;;;;;;5075062;28;20009;-63
2023/07/26 04:31:46;;;;;;;;;;;23.00;99.90;;;;;;5075291;28;20025;-65
2023/07/26 04:34:18;;;;;;;;;;;23.00;99.90;;;;;;5075353;28;20459;-65
2023/07/26 04:36:43;;;;;;;;;;;23.10;99.90;;;;;;5075096;28;19985;-64
2023/07/26 04:39:09;;;;;;;;;;;23.10;99.90;;;;;;5075117;28;19982;-63
2023/07/26 04:41:34;;;;;;;;;;;23.20;99.90;;;;;;5075047;28;20489;-65
2023/07/26 04:44:00;;;;;;;;;;;23.30;99.90;;;;;;5074778;28;19989;-65
2023/07/26 04:46:25;;;;;;;;;;;23.40;99.90;;;;;;5074826;28;20023;-64
2023/07/26 04:48:51;;;;;;;;;;;23.40;99.90;;;;;;5074885;28;20039;-64
2023/07/26 04:51:17;;;;;;;;;;;23.50;99.90;;;;;;5074868;28;20351;-64
2023/07/26 04:53:42;;;;;;;;;;;23.50;99.90;;;;;;5074960;28;20442;-63
2023/07/26 04:56:09;;;;;;;;;;;23.50;99.90;;;;;;5074727;28;20443;-64
2023/07/26 04:58:34;;;;;;;;;;;23.60;99.90;;;;;;5074470;28;19997;-63
2023/07/26 05:01:00;;;;;;;;;;;23.60;99.90;;;;;;5074601;28;20068;-64
2023/07/26 05:03:25;;;;;;;;;;;23.50;99.90;;;;;;5074750;28;19981;-64
2023/07/26 05:05:51;;;;;;;;;;;23.50;99.90;;;;;;5074539;28;20031;-63
2023/07/26 05:08:17;;;;;;;;;;;23.50;99.90;;;;;;5074538;28;19981;-64
2023/07/26 05:10:43;;;;;;;;;;;23.40;99.90;;;;;;5074396;28;20032;-63
2023/07/26 05:13:08;;;;;;;;;;;23.20;99.90;;;;;;5074446;28;20044;-64
2023/07/26 05:15:34;;;;;;;;;;;23.20;99.90;;;;;;5074365;28;19982;-64
2023/07/26 05:18:00;;;;;;;;;;;23.30;99.90;;;;;;5074417;28;19989;-63
2023/07/26 05:20:25;;;;;;;;;;;23.40;99.90;;;;;;5074308;28;19981;-65
2023/07/26 05:22:51;;;;;;;;;;;23.50;99.90;;;;;;5074287;28;19981;-63
2023/07/26 05:25:18;;;;;;;;;;;23.50;99.90;;;;;;5074195;28;19985;-65
2023/07/26 05:27:43;;;;;;;;;;;23.60;99.90;;;;;;5073989;28;20432;-64
2023/07/26 05:30:09;;;;;;;;;;;23.50;99.90;;;;;;5074440;28;19986;-64
2023/07/26 05:32:35;;;;;;;;;;;23.60;99.90;;;;;;5073985;28;20013;-63
2023/07/26 05:35:01;;;;;;;;;;;23.70;99.90;;;;;;5073998;28;19985;-64
2023/07/26 05:37:26;;;;;;;;;;;23.70;99.20;;;;;;5074111;28;20079;-64
2023/07/26 05:39:52;;;;;;;;;;;23.70;99.90;;;;;;5073998;28;20099;-64
2023/07/26 05:42:18;;;;;;;;;;;23.60;97.80;;;;;;5073760;28;19982;-64
2023/07/26 05:44:44;;;;;;;;;;;23.70;97.40;;;;;;5073946;28;19988;-64
2023/07/26 05:47:10;;;;;;;;;;;23.80;98.60;;;;;;5073896;28;20343;-65
2023/07/26 05:49:35;;;;;;;;;;;23.90;98.50;;;;;;5074089;28;20025;-63
2023/07/26 05:52:01;;;;;;;;;;;23.90;97.40;;;;;;5073907;28;20028;-65
2023/07/26 05:54:26;;;;;;;;;;;24.00;96.00;;;;;;5073666;28;20005;-65
2023/07/26 05:56:52;;;;;;;;;;;24.00;94.90;;;;;;5073596;28;20004;-63
2023/07/26 05:59:17;;;;;;;;;;;24.00;96.50;;;;;;5073765;28;20030;-63
2023/07/26 06:01:43;;;;;;;;;;;23.80;95.50;;;;;;5073769;28;20084;-64
2023/07/26 06:04:08;;;;;;;;;;;23.80;93.90;;;;;;5073659;28;19981;-64
2023/07/26 06:06:34;;;;;;;;;;;23.80;95.40;;;;;;5073704;28;19981;-64
2023/07/26 06:09:00;;;;;;;;;;;23.80;95.20;;;;;;5073737;28;20064;-64
2023/07/26 06:11:26;;;;;;;;;;;23.60;95.70;;;;;;5073417;28;20360;-63
2023/07/26 06:13:53;;;;;;;;;;;23.60;96.80;;;;;;5073632;28;20372;-65
2023/07/26 06:16:18;;;;;;;;;;;23.50;96.60;;;;;;5073713;28;20076;-64
2023/07/26 06:18:44;;;;;;;;;;;23.40;97.80;;;;;;5073481;28;20111;-64
2023/07/26 06:21:11;;;;;;;;;;;23.30;97.70;;;;;;5073623;28;20027;-64
2023/07/26 06:23:37;;;;;;;;;;;23.30;97.60;;;;;;5075980;28;19992;-64
2023/07/26 06:26:03;;;;;;;;;;;23.40;99.30;;;;;;5077401;28;20072;-64
2023/07/26 06:28:29;;;;;;;;;;;23.50;98.90;;;;;;5078151;28;20464;-64
2023/07/26 06:30:55;;;;;;;;;;;23.50;99.90;;;;;;5077636;28;19989;-65
2023/07/26 06:33:20;;;;;;;;;;;23.50;98.30;;;;;;5077376;28;20009;-65
2023/07/26 06:35:46;;;;;;;;;;;23.50;98.60;;;;;;5077399;28;19981;-63
2023/07/26 06:38:12;;;;;;;;;;;23.50;98.90;;;;;;5077633;28;20428;-63
2023/07/26 06:40:37;;;;;;;;;;;23.60;98.60;;;;;;5077359;28;20425;-64
2023/07/26 06:43:03;;;;;;;;;;;23.60;98.40;;;;;;5077266;28;20068;-65
2023/07/26 06:45:28;;;;;;;;;;;23.50;98.20;;;;;;5077366;28;20031;-64
2023/07/26 06:47:54;;;;;;;;;;;23.50;99.10;;;;;;5077208;28;20003;-63
2023/07/26 06:50:19;;;;;;;;;;;23.50;99.50;;;;;;5077128;28;19988;-64
2023/07/26 06:52:45;;;;;;;;;;;23.60;99.00;;;;;;5077101;28;20006;-63
2023/07/26 06:55:10;;;;;;;;;;;23.50;99.80;;;;;;5077115;28;20390;-63
2023/07/26 06:57:36;;;;;;;;;;;23.50;99.60;;;;;;5076891;28;20417;-64
2023/07/26 07:00:04;;;;;;;;;;;23.60;99.80;;;;;;5076976;28;20112;-65
2023/07/26 07:02:29;;;;;;;;;;;23.70;99.30;;;;;;5076958;28;20344;-64
2023/07/26 07:04:55;;;;;;;;;;;23.70;98.10;;;;;;5076997;28;19982;-64
2023/07/26 07:07:20;;;;;;;;;;;23.70;97.90;;;;;;5076603;28;20440;-64
2023/07/26 07:09:46;;;;;;;;;;;23.60;98.10;;;;;;5076802;28;20414;-65
2023/07/26 07:12:12;;;;;;;;;;;23.60;99.10;;;;;;5076737;28;19981;-65
2023/07/26 07:14:37;;;;;;;;;;;23.50;99.40;;;;;;5076601;28;19989;-65
2023/07/26 07:17:03;;;;;;;;;;;23.50;98.40;;;;;;5076918;28;19985;-64
2023/07/26 07:19:29;;;;;;;;;;;23.40;98.20;;;;;;5076613;28;19993;-64
2023/07/26 07:21:54;;;;;;;;;;;23.20;98.90;;;;;;5076347;28;19988;-65
2023/07/26 07:24:20;;;;;;;;;;;23.20;98.70;;;;;;5076455;28;19982;-65
2023/07/26 07:26:46;;;;;;;;;;;23.10;98.70;;;;;;5076757;28;20352;-63
2023/07/26 07:29:11;;;;;;;;;;;23.20;99.00;;;;;;5076398;28;19981;-64
2023/07/26 07:31:37;;;;;;;;;;;23.20;99.70;;;;;;5076337;28;19996;-64
2023/07/26 07:34:02;;;;;;;;;;;23.30;98.30;;;;;;5075216;28;20055;-64
2023/07/26 07:36:28;;;;;;;;;;;23.30;99.10;;;;;;5075881;28;19985;-64
2023/07/26 07:38:53;;;;;;;;;;;23.30;98.50;;;;;;5076514;28;19986;-64
2023/07/26 07:41:19;;;;;;;;;;;23.30;97.90;;;;;;5076212;28;20004;-63
2023/07/26 07:43:44;;;;;;;;;;;23.40;97.80;;;;;;5076498;28;20489;-63
2023/07/26 07:46:10;;;;;;;;;;;23.30;98.00;;;;;;5075869;28;20391;-64
2023/07/26 07:48:36;;;;;;;;;;;23.30;98.40;;;;;;5076210;28;19981;-65
2023/07/26 07:51:02;;;;;;;;;;;23.20;98.60;;;;;;5076634;28;20343;-63
2023/07/26 07:53:27;;;;;;;;;;;23.10;98.70;;;;;;5075801;28;20027;-64
2023/07/26 07:55:53;;;;;;;;;;;23.10;99.20;;;;;;5076194;28;19992;-65
2023/07/26 07:58:20;;;;;;;;;;;22.90;97.90;;;;;;5075945;28;20005;-64
2023/07/26 08:00:46;;;;;;;;;;;23.10;99.00;;;;;;5075813;28;20029;-63
2023/07/26 08:03:11;;;;;;;;;;;23.00;97.90;;;;;;5076113;28;20028;-65
2023/07/26 08:05:37;;;;;;;;;;;22.90;99.60;;;;;;5075906;28;20044;-65
2023/07/26 08:08:02;;;;;;;;;;;22.80;98.50;;;;;;5075783;28;19982;-65
2023/07/26 08:10:28;;;;;;;;;;;22.80;98.90;;;;;;5075591;28;19985;-65
2023/07/26 08:12:53;;;;;;;;;;;22.90;98.50;;;;;;5075703;28;20005;-63
2023/07/26 08:15:19;;;;;;;;;;;22.90;98.60;;;;;;5075947;28;19985;-64
2023/07/26 08:17:44;;;;;;;;;;;22.90;98.60;;;;;;5075492;28;20035;-63
2023/07/26 08:20:11;;;;;;;;;;;22.80;98.50;;;;;;5075261;28;19982;-64
2023/07/26 08:22:37;;;;;;;;;;;22.80;99.30;;;;;;5075443;28;19992;-65
2023/07/26 08:25:03;;;;;;;;;;;22.90;98.40;;;;;;5075407;28;19989;-64
2023/07/26 08:27:29;;;;;;;;;;;23.10;98.00;;;;;;5075592;28;20336;-64
2023/07/26 08:29:55;;;;;;;;;;;23.30;97.80;;;;;;5075276;28;19982;-63
2023/07/26 08:32:20;;;;;;;;;;;23.40;96.90;;;;;;5075181;28;19982;-64
2023/07/26 08:34:46;;;;;;;;;;;23.40;95.90;;;;;;5074994;28;19993;-64
2023/07/26 08:37:11;;;;;;;;;;;23.50;95.80;;;;;;5075379;28;20000;-63
2023/07/26 08:39:37;;;;;;;;;;;23.60;95.30;;;;;;5075211;28;20482;-64
2023/07/26 08:42:03;;;;;;;;;;;23.70;95.70;;;;;;5075017;28;20343;-65
2023/07/26 08:44:29;;;;;;;;;;;23.60;94.80;;;;;;5075322;28;19990;-63
2023/07/26 08:46:55;;;;;;;;;;;23.70;95.40;;;;;;5074630;28;20436;-63
2023/07/26 08:49:21;;;;;;;;;;;23.70;95.10;;;;;;5074855;28;19985;-65
2023/07/26 08:51:47;;;;;;;;;;;23.80;93.50;;;;;;5075038;28;20013;-64
2023/07/26 08:54:13;;;;;;;;;;;23.70;94.00;;;;;;5074954;28;20005;-65
2023/07/26 08:56:39;;;;;;;;;;;23.70;93.20;;;;;;5074713;28;19986;-64
2023/07/26 08:59:04;;;;;;;;;;;23.80;93.10;;;;;;5074952;28;20046;-65
2023/07/26 09:01:30;;;;;;;;;;;23.80;92.40;;;;;;5074477;28;20024;-64
2023/07/26 09:03:56;;;;;;;;;;;23.80;92.70;;;;;;5074498;28;19988;-64
2023/07/26 09:06:22;;;;;;;;;;;23.80;92.80;;;;;;5074603;28;20039;-63
2023/07/26 09:08:48;;;;;;;;;;;23.90;93.20;;;;;;5074637;28;20394;-64
2023/07/26 09:11:26;;;;;;;;;;;24.00;92.40;;;;;;5074558;28;19981;-65
2023/07/26 09:13:55;;;;;;;;;;;24.10;92.20;;;;;;5074381;28;20009;-64
2023/07/26 09:16:21;;;;;;;;;;;24.20;91.30;;;;;;5074426;28;19982;-64
2023/07/26 09:18:59;;;;;;;;;;;24.20;93.00;;;;;;5074099;28;19981;-65
2023/07/26 09:21:26;;;;;;;;;;;24.30;92.10;;;;;;5074341;28;19981;-64
2023/07/26 09:23:51;;;;;;;;;;;24.20;92.00;;;;;;5074328;28;19981;-64
2023/07/26 09:26:25;;;;;;;;;;;24.20;92.60;;;;;;5074075;28;19993;-64
2023/07/26 09:28:51;;;;;;;;;;;24.20;93.30;;;;;;5074188;28;20457;-64
2023/07/26 09:31:28;;;;;;;;;;;24.10;92.10;;;;;;5074134;28;20447;-63
2023/07/26 09:33:54;;;;;;;;;;;24.10;93.50;;;;;;5073834;28;20028;-65
2023/07/26 09:36:19;;;;;;;;;;;24.30;92.60;;;;;;5074049;28;20440;-64
2023/07/26 09:38:46;;;;;;;;;;;24.40;93.20;;;;;;5073994;28;20008;-64
2023/07/26 09:41:24;;;;;;;;;;;24.40;93.00;;;;;;5073958;28;19981;-64
2023/07/26 09:43:50;;;;;;;;;;;24.30;93.10;;;;;;5074021;28;20042;-65
2023/07/26 09:46:17;;;;;;;;;;;24.40;91.40;;;;;;5073734;28;20044;-64
2023/07/26 09:48:56;;;;;;;;;;;24.40;92.30;;;;;;5073728;28;20343;-64
2023/07/26 09:51:21;;;;;;;;;;;24.30;93.20;;;;;;5074085;28;20079;-65
2023/07/26 09:53:48;;;;;;;;;;;24.30;94.10;;;;;;5073924;28;20005;-64
2023/07/26 09:56:13;;;;;;;;;;;24.20;93.50;;;;;;5073911;28;20039;-63
2023/07/26 09:58:42;;;;;;;;;;;24.20;94.00;;;;;;5072971;28;19998;-63
2023/07/26 10:01:11;;;;;;;;;;;24.10;94.60;;;;;;5073892;28;20027;-65
2023/07/26 10:03:38;;;;;;;;;;;24.00;93.40;;;;;;5073534;28;19989;-64
2023/07/26 10:06:04;;;;;;;;;;;24.10;93.90;;;;;;5073629;28;19982;-65
2023/07/26 10:08:30;;;;;;;;;;;24.20;92.70;;;;;;5073760;28;19982;-65
2023/07/26 10:10:57;;;;;;;;;;;24.40;92.30;;;;;;5073713;28;19981;-65
2023/07/26 10:13:24;;;;;;;;;;;24.40;92.10;;;;;;5073484;28;20050;-63
2023/07/26 10:15:50;;;;;;;;;;;24.20;92.40;;;;;;5073516;28;20444;-63
2023/07/26 10:18:17;;;;;;;;;;;24.20;91.20;;;;;;5073545;28;20084;-65
2023/07/26 10:20:43;;;;;;;;;;;24.30;92.00;;;;;;5073554;28;19988;-63
2023/07/26 10:23:10;;;;;;;;;;;24.30;92.00;;;;;;5073407;28;19989;-64
2023/07/26 10:25:36;;;;;;;;;;;24.20;93.00;;;;;;5073571;28;19988;-64
2023/07/26 10:28:02;;;;;;;;;;;24.00;93.70;;;;;;5073477;28;20076;-65
2023/07/26 10:30:28;;;;;;;;;;;23.90;93.20;;;;;;5073252;28;20021;-65
2023/07/26 10:32:54;;;;;;;;;;;23.80;93.80;;;;;;5073397;28;20055;-65
2023/07/26 10:35:29;;;;;;;;;;;23.80;93.40;;;;;;5073496;28;20031;-63
2023/07/26 10:37:59;;;;;;;;;;;23.80;94.10;;;;;;5073421;28;20051;-64
2023/07/26 10:40:32;;;;;;;;;;;23.70;94.30;;;;;;5073684;28;19992;-63
2023/07/26 10:42:58;;;;;;;;;;;23.80;93.80;;;;;;5073575;28;19985;-64
2023/07/26 10:45:37;;;;;;;;;;;23.90;94.80;;;;;;5073181;28;20107;-63
2023/07/26 10:48:03;;;;;;;;;;;23.90;94.60;;;;;;5073288;28;19986;-63
2023/07/26 10:50:28;;;;;;;;;;;23.90;96.60;;;;;;5073178;28;20035;-64
2023/07/26 10:52:54;;;;;;;;;;;23.80;94.70;;;;;;5073290;28;20005;-63
2023/07/26 10:55:22;;;;;;;;;;;23.70;95.60;;;;;;5073258;28;19981;-63
2023/07/26 10:57:48;;;;;;;;;;;23.80;95.00;;;;;;5073064;28;19997;-63
2023/07/26 11:00:22;;;;;;;;;;;23.90;96.00;;;;;;5073099;28;20390;-64
2023/07/26 11:02:49;;;;;;;;;;;23.90;93.30;;;;;;5073222;28;19989;-64
2023/07/26 11:05:18;;;;;;;;;;;23.80;93.90;;;;;;5073097;28;20020;-65
2023/07/26 11:07:51;;;;;;;;;;;23.60;93.10;;;;;;5073143;28;20031;-65
2023/07/26 11:10:21;;;;;;;;;;;23.50;93.40;;;;;;5076159;28;19989;-64
2023/07/26 11:13:07;;;;;;;;;;;23.40;93.80;;;;;;5076722;28;20103;-64
2023/07/26 11:15:33;;;;;;;;;;;23.30;93.90;;;;;;5076455;28;20119;-65
2023/07/26 11:17:59;;;;;;;;;;;23.40;94.90;;;;;;5076613;28;20379;-65
2023/07/26 11:20:24;;;;;;;;;;;23.50;93.70;;;;;;5076743;28;19982;-65
2023/07/26 11:22:50;;;;;;;;;;;23.50;93.20;;;;;;5076613;28;20382;-64
2023/07/26 11:25:16;;;;;;;;;;;23.60;93.50;;;;;;5076899;28;19985;-63
2023/07/26 11:27:41;;;;;;;;;;;23.60;94.20;;;;;;5076777;28;20355;-63
2023/07/26 11:30:14;;;;;;;;;;;23.60;93.20;;;;;;5076354;28;20410;-64
2023/07/26 11:32:43;;;;;;;;;;;23.40;92.30;;;;;;5076663;28;19996;-65
2023/07/26 11:35:09;;;;;;;;;;;23.20;92.80;;;;;;5076482;28;19985;-64
2023/07/26 11:37:35;;;;;;;;;;;23.10;93.10;;;;;;5076291;28;20069;-63
2023/07/26 11:40:03;;;;;;;;;;;23.10;93.80;;;;;;5076229;28;20428;-64
2023/07/26 11:42:28;;;;;;;;;;;23.10;94.00;;;;;;5076350;28;20432;-63
2023/07/26 11:44:54;;;;;;;;;;;23.00;94.20;;;;;;5075815;28;20024;-63
2023/07/26 11:47:20;;;;;;;;;;;23.10;94.30;;;;;;5076073;28;20072;-65
2023/07/26 11:49:46;;;;;;;;;;;23.10;93.60;;;;;;5076087;28;20148;-65
2023/07/26 11:52:16;;;;;;;;;;;23.00;92.80;;;;;;5076119;28;20017;-65
2023/07/26 11:54:58;;;;;;;;;;;22.90;93.70;;;;;;5076191;28;20363;-64
2023/07/26 11:57:27;;;;;;;;;;;22.80;93.40;;;;;;5075919;28;19997;-65
2023/07/26 11:59:57;;;;;;;;;;;22.90;94.30;;;;;;5075730;28;20356;-65
2023/07/26 12:02:23;;;;;;;;;;;23.00;93.80;;;;;;5076011;28;19982;-65
2023/07/26 12:05:07;;;;;;;;;;;23.00;93.50;;;;;;5076139;28;20012;-65
2023/07/26 12:07:32;;;;;;;;;;;23.00;93.30;;;;;;5075747;28;19981;-63
2023/07/26 12:09:58;;;;;;;;;;;23.10;93.00;;;;;;5075824;28;19985;-64
2023/07/26 12:12:24;;;;;;;;;;;23.00;93.30;;;;;;5075299;28;20011;-65
2023/07/26 12:14:49;;;;;;;;;;;23.00;92.70;;;;;;5075822;28;19986;-64
2023/07/26 12:17:15;;;;;;;;;;;23.00;92.20;;;;;;5075643;28;19981;-64
2023/07/26 12:19:44;;;;;;;;;;;22.90;92.30;;;;;;5075480;28;19985;-63
2023/07/26 12:22:10;;;;;;;;;;;22.70;91.60;;;;;;5074984;28;20475;-65
2023/07/26 12:24:52;;;;;;;;;;;22.70;92.10;;;;;;5075771;28;20028;-64
2023/07/26 12:27:17;;;;;;;;;;;22.70;91.60;;;;;;5075458;28;19995;-64
2023/07/26 12:29:43;;;;;;;;;;;22.30;91.70;;;;;;5075458;28;19982;-63
2023/07/26 12:32:13;;;;;;;;;;;22.40;92.10;;;;;;5075367;28;20463;-64
2023/07/26 12:34:42;;;;;;;;;;;22.50;91.80;;;;;;5075156;28;20015;-65
2023/07/26 12:37:07;;;;;;;;;;;22.40;92.30;;;;;;5075364;28;20004;-65
2023/07/26 12:39:33;;;;;;;;;;;22.50;92.40;;;;;;5073922;28;20436;-64
2023/07/26 12:41:58;;;;;;;;;;;22.60;91.80;;;;;;5074857;28;20041;-64
2023/07/26 12:44:26;;;;;;;;;;;22.60;91.20;;;;;;5074984;28;20047;-65
2023/07/26 12:46:51;;;;;;;;;;;22.70;91.50;;;;;;5074802;28;20112;-65
2023/07/26 12:49:18;;;;;;;;;;;22.70;91.00;;;;;;5074838;28;20436;-64
2023/07/26 12:51:46;;;;;;;;;;;22.60;90.80;;;;;;5075124;28;19985;-65
2023/07/26 12:54:11;;;;;;;;;;;22.50;90.10;;;;;;5074857;28;20503;-64
2023/07/26 12:56:37;;;;;;;;;;;22.30;88.60;;;;;;5074512;28;20060;-65
2023/07/26 12:59:02;;;;;;;;;;;22.20;87.30;;;;;;5074794;28;20068;-64
2023/07/26 13:01:28;;;;;;;;;;;22.20;86.60;;;;;;5074990;28;20428;-63
2023/07/26 13:03:54;;;;;;;;;;;22.10;88.70;;;;;;5074580;28;20025;-64
2023/07/26 13:06:19;;;;;;;;;;;22.10;90.00;;;;;;5074907;28;20567;-63
2023/07/26 13:08:45;;;;;;;;;;;22.00;91.60;;;;;;5074566;28;20329;-63
2023/07/26 13:11:10;;;;;;;;;;;21.90;91.80;;;;;;5074357;28;20004;-64
2023/07/26 13:13:36;;;;;;;;;;;21.90;92.40;;;;;;5074359;28;20009;-64
2023/07/26 13:16:01;;;;;;;;;;;21.90;93.20;;;;;;5074459;28;20343;-65
2023/07/26 13:18:27;;;;;;;;;;;21.80;92.90;;;;;;5074351;28;19982;-63
2023/07/26 13:20:53;;;;;;;;;;;22.00;93.30;;;;;;5074241;28;19989;-64
2023/07/26 13:23:19;;;;;;;;;;;22.10;93.80;;;;;;5074302;28;20043;-64
2023/07/26 13:25:46;;;;;;;;;;;21.90;93.40;;;;;;5074338;28;19986;-65
2023/07/26 13:28:11;;;;;;;;;;;21.90;93.40;;;;;;5074159;28;20084;-65
2023/07/26 13:30:37;;;;;;;;;;;21.90;94.00;;;;;;5074472;28;20025;-63
2023/07/26 13:33:02;;;;;;;;;;;21.90;92.70;;;;;;5074143;28;20341;-64
2023/07/26 13:35:28;;;;;;;;;;;22.00;92.00;;;;;;5074122;28;19985;-64
2023/07/26 13:37:53;;;;;;;;;;;22.10;92.90;;;;;;5072842;28;20495;-63
2023/07/26 13:40:20;;;;;;;;;;;22.00;91.70;;;;;;5074112;28;20024;-64
2023/07/26 13:42:46;;;;;;;;;;;21.90;91.50;;;;;;5074092;28;20013;-65
2023/07/26 13:45:11;;;;;;;;;;;21.90;92.60;;;;;;5073678;28;20018;-63
2023/07/26 13:47:37;;;;;;;;;;;21.90;91.40;;;;;;5073939;28;20421;-64
2023/07/26 13:50:03;;;;;;;;;;;21.80;92.50;;;;;;5074048;28;19985;-64
2023/07/26 13:52:29;;;;;;;;;;;21.70;93.00;;;;;;5073713;28;19985;-65
2023/07/26 13:54:54;;;;;;;;;;;21.80;91.90;;;;;;5073659;28;19981;-65
2023/07/26 13:57:20;;;;;;;;;;;21.80;91.40;;;;;;5073718;28;19997;-65
2023/07/26 13:59:46;;;;;;;;;;;21.80;91.50;;;;;;5073738;28;19986;-64
2023/07/26 14:02:11;;;;;;;;;;;21.90;91.50;;;;;;5073794;28;20030;-65
2023/07/26 14:04:37;;;;;;;;;;;22.00;92.20;;;;;;5073845;28;19982;-64
2023/07/26 14:07:03;;;;;;;;;;;22.00;92.50;;;;;;5073583;28;20076;-65
2023/07/26 14:09:29;;;;;;;;;;;22.10;92.90;;;;;;5073640;28;19990;-64
2023/07/26 14:11:54;;;;;;;;;;;22.20;94.30;;;;;;5073691;28;19981;-65